• Join FlightAware (Why Join?)
  • Login
  • US Flag 
04:37PM EDT


 

Airport Tracker/Info


-or-


 

Live Flight TrackerFlight Track Log ✈ LOG6847 ✈ 11-Nov-2013 ✈ EGPF / GLA - EGEC / CAL

Flight Track Log - Related Links

Times and Time Zones

All times are in EST time to prevent confusion due to time zone crossing. See the LOG6847 flight status page for this flight to view local times or setup timezone preferences in your user account.

Time Position Orientation Groundspeed Altitude Reporting Facility
EST Latitude Longitude Course Direction KTS MPH feet Rate Location/Type
11:25AM 55.8692 -4.4381 235° Southwest 1 1 500  Level FlightAware UK
11:25AM 55.8647 -4.4495 235° Southwest 1 1 800 960 Climbing FlightAware UK
11:25AM 55.8607 -4.4611 238° Southwest 1 1 1,100 960 Climbing FlightAware UK
11:26AM 55.8571 -4.4717 239° Southwest 1 1 1,400 780 Climbing FlightAware UK
11:26AM 55.8528 -4.4822 234° Southwest 1 1 1,600 840 Climbing FlightAware UK
11:26AM 55.8473 -4.4970 236° Southwest 1 1 2,000 1,140 Climbing FlightAware UK
11:27AM 55.8436 -4.5085 240° Southwest 1 1 2,400 960 Climbing FlightAware UK
11:27AM 55.8400 -4.5203 241° Southwest 1 1 2,600 840 Climbing FlightAware UK
11:27AM 55.8348 -4.5361 239° Southwest 1 1 3,000 840 Climbing FlightAware UK
11:28AM 55.8307 -4.5476 238° Southwest 1 1 3,200 780 Climbing FlightAware UK
11:28AM 55.8266 -4.5590 237° Southwest 1 1 3,500 780 Climbing FlightAware UK
11:28AM 55.8222 -4.5705 236° Southwest 1 1 3,700 660 Climbing FlightAware UK
11:29AM 55.8177 -4.5822 236° Southwest 1 1 3,900 780 Climbing FlightAware UK
11:29AM 55.8136 -4.5945 239° Southwest 1 1 4,200 840 Climbing FlightAware UK
11:29AM 55.8082 -4.6109 239° Southwest 1 1 4,500 840 Climbing FlightAware UK
11:30AM 55.8031 -4.6272 241° Southwest 1 1 4,900 840 Climbing FlightAware UK
11:30AM 55.7994 -4.6398 243° Southwest 1 1 5,100 540 Climbing FlightAware UK
11:30AM 55.7943 -4.6568 242° Southwest 1 1 5,300 420 Climbing FlightAware UK
11:31AM 55.7894 -4.6696 236° Southwest 1 1 5,400 480 Climbing FlightAware UK
11:31AM 55.7848 -4.6818 236° Southwest 1 1 5,600 360 Climbing FlightAware UK
11:32AM 55.7774 -4.7021 237° Southwest 1 1 5,700 360 Climbing FlightAware UK
11:32AM 55.7733 -4.7145 239° Southwest 1 1 5,900 480 Climbing FlightAware UK
11:32AM 55.7692 -4.7272 240° Southwest 1 1 6,000 120 Climbing FlightAware UK
11:33AM 55.7629 -4.7472 241° Southwest 1 1 6,000 120 Level FlightAware UK
11:33AM 55.7582 -4.7630 242° Southwest 1 1 6,100 120 Climbing FlightAware UK
11:33AM 55.7528 -4.7790 239° Southwest 1 1 6,100 -180 Level FlightAware UK
11:33AM 55.7472 -4.7947 238° Southwest 1 1 6,000 -540 Descending FlightAware UK
11:34AM 55.7415 -4.8107 237° Southwest 1 1 5,800 -180 Descending FlightAware UK
11:34AM 55.7357 -4.8263 237° Southwest 1 1 5,900 120 Climbing FlightAware UK
11:34AM 55.7298 -4.8413 235° Southwest 1 1 5,900  Level FlightAware UK
11:35AM 55.7240 -4.8555 234° Southwest 1 1 5,900  Level FlightAware UK
11:35AM 55.7154 -4.8777 236° Southwest 1 1 5,900 120 Level FlightAware UK
11:35AM 55.7105 -4.8906 236° Southwest 1 1 6,000 120 Climbing FlightAware UK
11:36AM 55.7055 -4.9039 237° Southwest 1 1 6,000  Level FlightAware UK
11:36AM 55.6973 -4.9278 239° Southwest 1 1 6,000 120 Level FlightAware UK
11:37AM 55.6913 -4.9430 235° Southwest 1 1 6,100 300 Climbing FlightAware UK
11:37AM 55.6853 -4.9583 235° Southwest 1 1 6,200  Climbing FlightAware UK
11:37AM 55.6794 -4.9751 238° Southwest 1 1 6,100 -360 Descending FlightAware UK
11:37AM 55.6736 -4.9919 238° Southwest 1 1 6,000  Descending FlightAware UK
11:38AM 55.6675 -5.0091 238° Southwest 1 1 6,100 -180 Climbing FlightAware UK
11:38AM 55.6599 -5.0314 239° Southwest 1 1 5,900 -180 Descending FlightAware UK
11:38AM 55.6548 -5.0465 239° Southwest 1 1 6,000 120 Climbing FlightAware UK
11:39AM 55.6456 -5.0688 234° Southwest 1 1 6,000 60 Level FlightAware UK
11:39AM 55.6373 -5.0924 238° Southwest 1 1 6,100  Climbing FlightAware UK
11:40AM 55.6255 -5.1243 237° Southwest 1 1 6,000 -120 Descending FlightAware UK
11:40AM 55.6193 -5.1415 238° Southwest 1 1 6,000  Level FlightAware UK
11:41AM 55.6135 -5.1576 237° Southwest 1 1 6,000  Level FlightAware UK
11:41AM 55.6080 -5.1728 237° Southwest 1 1 6,000  Level FlightAware UK
11:41AM 55.6025 -5.1878 237° Southwest 1 1 6,000  Level FlightAware UK
11:42AM 55.5949 -5.2069 235° Southwest 1 1 6,000 -480 Level FlightAware UK
11:42AM 55.5898 -5.2218 239° Southwest 1 1 5,700 -720 Descending FlightAware UK
11:42AM 55.5833 -5.2373 234° Southwest 1 1 5,600 -540 Descending FlightAware UK
11:43AM 55.5764 -5.2520 230° Southwest 1 1 5,400 -660 Descending FlightAware UK
11:43AM 55.5654 -5.2785 234° Southwest 1 1 5,100 -720 Descending FlightAware UK
11:43AM 55.5569 -5.3016 237° Southwest 1 1 4,800 -720 Descending FlightAware UK
11:44AM 55.5362 -5.3463 231° Southwest 1 1 4,300 -660 Descending FlightAware UK
11:45AM 55.5263 -5.3607 219° Southwest 1 1 4,100 -720 Descending FlightAware UK
11:45AM 55.5161 -5.3746 218° Southwest 1 1 3,900 -720 Descending FlightAware UK
11:45AM 55.5057 -5.3881 216° Southwest 1 1 3,700 -1,020 Descending FlightAware UK
11:45AM 55.4951 -5.4014 215° Southwest 1 1 3,300 -1,200 Descending FlightAware UK
11:46AM 55.4846 -5.4150 216° Southwest 1 1 3,000 -1,020 Descending FlightAware UK
11:48AM 55.4725 -5.4846 253° West  Level Estimated
11:55AM 55.4372 -5.6864 253° West  Level Estimated
11:56AM 55.4372 -5.6864 16° North  Level Estimated
11:57AM 55.4372 -5.6864 16° North  Level Estimated
11:58AM 55.4372 -5.6864 16° North  Level Estimated
11:59AM 55.4372 -5.6864 16° North  Level Estimated
12:00PM 55.4372 -5.6864 16° North  Level Estimated
12:01PM 55.4372 -5.6864 16° North  Level Estimated
12:02PM 55.4372 -5.6864 16° North  Level Estimated
12:03PM 55.4372 -5.6864 16° North  Level Estimated
12:04PM 55.4372 -5.6864 16° North  Level Estimated
12:05PM 55.4372 -5.6864 16° North  Level Estimated
12:06PM 55.4372 -5.6864 16° North  Level Estimated
12:07PM 55.4372 -5.6864 16° North  Level Estimated
12:08PM 55.4372 -5.6864 16° North  Level Estimated
12:09PM 55.4372 -5.6864 16° North  Level Estimated
12:10PM 55.4372 -5.6864 16° North  Level Estimated
12:11PM 55.4372 -5.6864 16° North  Level Estimated
12:12PM 55.4372 -5.6864 16° North  Level Estimated
12:13PM 55.4372 -5.6864 16° North  Level Estimated
12:14PM 55.4372 -5.6864 16° North  Level Estimated
12:15PM 55.4372 -5.6864 16° North  Level Estimated